메인 페이지
METAR-TAF:

METAR-TAF

공항 :

미니애폴리스 세인트폴 국제공항

미니애폴리스, 미네소타, 미국

위도: 44-52-59N, 경도: 093-13-44W, 고도: 256m

현재 날씨관측

예보는 31분 전, 22:27시(UTC)에 발표되었습니다.
북북서7kt
온도 -3°C
습도 86%
기압 1027 hPa
시정: 6.4km
고도 1500ft 상공 구름 많음
고도 2500ft 상공 구름 많음
고도 4000ft 상공 흐림
약한눈, 박무

METAR: KMSP 252227Z 33007KT 4SM -SN BR BKN015 BKN025 OVC040 M03/M05 A3034 RMK AO2 P0000 T10281050

시각: 17:58 (22:58 UTC)

예보

예보는 2 시간 12분 전, 20:46시(UTC)에 발표되었습니다.
예보 대상 시간: 25일 21시부터 26일 24시까지 (UTC)
북북서6kt
시정: 2.4km
고도 1500ft 상공 흐림
약한눈, 박무
일시적
25일 21시부터 25일 23시까지 (UTC)
시정: 1.6km
고도 1500ft 상공 구름 보통
고도 2000ft 상공 흐림
약한눈, 박무
25일 2300시부터 (UTC)
북북서7kt
시정: 10km
고도 2000ft 상공 구름 보통
고도 3500ft 상공 흐림
일시적
25일 23시부터 26일 02시까지 (UTC)
시정: 1.6km
고도 2500ft 상공 흐림
약한눈, 박무
26일 1000시부터 (UTC)
서북서6kt
시정: 10km
고도 3000ft 상공 구름 보통
고도 10000ft 상공 흐림

TAF: KMSP 252046Z 2521/2624 34006KT 1 1/2SM -SN BR OVC015 TEMPO 2521/2523 5SM -SN BR SCT015 OVC020 FM252300 33007KT P6SM SCT020 OVC035 TEMPO 2523/2602 4SM -SN BR OVC025 FM261000 30006KT P6SM SCT030 OVC100

4,000개 이상의 공항 관측 자료 및 예보 (METAR 및 TAF 보고).

지도상에서 검색 가능한 기상관측소가 노란 점과 빨간 점으로 표시되어 있습니다.

기상관측소 명을 보려면 표시 위로 마우스를 이동하세요.

날씨 관측과 예보를 보려면 클릭하세요.

지도 변경 : 확대하려면 엑스 표시가 있는 녹색 버튼, 축소하려면 빼기 표시가 있는 녹색 버튼, 다음 페이지의 지도를 보려면 녹색 화살표를 클릭하세요.


METAR-TAF: